Time;durP1;ratioP1;P1;durP2;ratioP2;P2;SDS_P1;SDS_P2;PMS_P1;PMS_P2;Temp;Humidity;BMP_temperature;BMP_pressure;BME280_temperature;BME280_humidity;BME280_pressure;Samples;Min_cycle;Max_cycle;Signal;HPM_P1;HPM_P2
2023/07/26 00:01:45;;;;;;;4.20;2.40;;;14.80;99.90;;;;;;5092101;28;20044;-77
2023/07/26 00:04:11;;;;;;;8.40;2.60;;;14.80;99.90;;;;;;5093108;28;20097;-77
2023/07/26 00:06:37;;;;;;;6.87;2.37;;;14.80;99.90;;;;;;5093329;28;20126;-76
2023/07/26 00:09:03;;;;;;;4.63;2.43;;;14.80;99.90;;;;;;5093597;28;20079;-77
2023/07/26 00:11:29;;;;;;;5.70;2.30;;;14.80;99.90;;;;;;5093123;28;20042;-77
2023/07/26 00:13:55;;;;;;;5.13;2.00;;;14.80;99.90;;;;;;5092948;28;20765;-77
2023/07/26 00:16:21;;;;;;;5.20;2.23;;;14.80;99.90;;;;;;5092925;28;20293;-77
2023/07/26 00:18:46;;;;;;;5.40;2.50;;;14.80;99.90;;;;;;5093197;28;20392;-77
2023/07/26 00:21:12;;;;;;;5.73;2.43;;;14.80;99.90;;;;;;5091494;28;20467;-77
2023/07/26 00:23:38;;;;;;;6.90;2.40;;;14.80;99.90;;;;;;5093139;28;20048;-77
2023/07/26 00:26:04;;;;;;;6.47;2.33;;;14.80;99.90;;;;;;5091852;28;20189;-77
2023/07/26 00:28:29;;;;;;;4.80;2.03;;;14.80;99.90;;;;;;5074990;28;20047;-76
2023/07/26 00:30:55;;;;;;;8.97;2.50;;;14.80;99.90;;;;;;5091967;28;20119;-77
2023/07/26 00:33:21;;;;;;;5.70;2.10;;;14.80;99.90;;;;;;5091765;28;20474;-77
2023/07/26 00:35:47;;;;;;;6.47;2.27;;;14.70;99.90;;;;;;5095821;28;20043;-77
2023/07/26 00:38:12;;;;;;;4.40;2.13;;;14.70;99.90;;;;;;5095708;28;20157;-77
2023/07/26 00:40:38;;;;;;;3.43;2.00;;;14.70;99.90;;;;;;5097317;28;20126;-76
2023/07/26 00:43:05;;;;;;;5.50;2.30;;;14.70;99.90;;;;;;5097147;28;20048;-77
2023/07/26 00:45:35;;;;;;;4.23;2.30;;;14.70;99.90;;;;;;5095787;28;20302;-76
2023/07/26 00:48:01;;;;;;;5.73;2.60;;;14.70;99.90;;;;;;5095870;28;20650;-77
2023/07/26 00:50:27;;;;;;;5.60;2.40;;;14.60;99.90;;;;;;5096697;28;20281;-77
2023/07/26 00:52:54;;;;;;;5.63;2.60;;;14.60;99.90;;;;;;5096987;28;20282;-77
2023/07/26 00:55:20;;;;;;;5.73;2.70;;;14.60;99.90;;;;;;5096608;28;20093;-77
2023/07/26 00:57:46;;;;;;;6.90;3.10;;;14.60;99.90;;;;;;5096834;28;20277;-76
2023/07/26 01:00:13;;;;;;;5.03;2.30;;;14.50;99.90;;;;;;5096501;28;20373;-76
2023/07/26 01:02:39;;;;;;;5.63;2.70;;;14.60;99.90;;;;;;5095765;28;20608;-76
2023/07/26 01:05:06;;;;;;;6.07;2.70;;;14.50;99.90;;;;;;5096690;28;20310;-76
2023/07/26 01:07:43;;;;;;;4.83;2.40;;;14.50;99.90;;;;;;5096419;28;20735;-76
2023/07/26 01:10:30;;;;;;;14.63;2.97;;;14.50;99.90;;;;;;5095843;28;20423;-76
2023/07/26 01:13:22;;;;;;;9.70;2.87;;;14.40;99.90;;;;;;5095693;28;20359;-76
2023/07/26 01:15:49;;;;;;;4.57;2.50;;;14.40;99.90;;;;;;5080210;28;20286;-77
2023/07/26 01:18:16;;;;;;;8.60;3.43;;;14.40;99.90;;;;;;5095098;28;20282;-77
2023/07/26 01:20:43;;;;;;;6.50;3.10;;;14.40;99.90;;;;;;5095201;28;20821;-78
2023/07/26 01:23:09;;;;;;;5.30;2.70;;;14.40;99.90;;;;;;5095218;28;20289;-77
2023/07/26 01:25:41;;;;;;;7.27;3.07;;;14.40;99.90;;;;;;5094362;28;20300;-77
2023/07/26 01:28:14;;;;;;;5.27;2.37;;;14.40;99.90;;;;;;5079229;28;20775;-77
2023/07/26 01:30:42;;;;;;;5.73;3.10;;;14.40;99.90;;;;;;5062109;28;20290;-77
2023/07/26 01:33:09;;;;;;;6.67;3.20;;;14.40;99.90;;;;;;5078198;28;20342;-77
2023/07/26 01:35:41;;;;;;;6.53;3.30;;;14.40;99.90;;;;;;5063595;28;20305;-76
2023/07/26 01:38:08;;;;;;;9.57;3.10;;;14.30;99.90;;;;;;5094869;28;20734;-77
2023/07/26 01:40:35;;;;;;;5.43;3.27;;;14.30;99.90;;;;;;5077707;28;20476;-76
2023/07/26 01:43:01;;;;;;;8.30;3.33;;;14.30;99.90;;;;;;5077833;28;20302;-76
2023/07/26 01:45:27;;;;;;;6.00;3.33;;;14.30;99.90;;;;;;5077745;28;20290;-77
2023/07/26 01:47:53;;;;;;;6.37;3.30;;;14.30;99.90;;;;;;5076882;28;20068;-77
2023/07/26 01:50:19;;;;;;;6.77;3.87;;;14.20;99.90;;;;;;5077040;28;20766;-77
2023/07/26 01:52:45;;;;;;;6.87;3.50;;;14.20;99.90;;;;;;5077395;28;20290;-77
2023/07/26 01:55:11;;;;;;;8.00;3.23;;;14.20;99.90;;;;;;5077802;28;20056;-77
2023/07/26 01:57:37;;;;;;;7.07;3.77;;;14.20;99.90;;;;;;5094210;28;20062;-76
2023/07/26 02:00:04;;;;;;;6.33;3.17;;;14.10;99.90;;;;;;5061072;28;20170;-76
2023/07/26 02:02:30;;;;;;;5.70;3.27;;;14.10;99.90;;;;;;5094440;28;20105;-77
2023/07/26 02:04:56;;;;;;;7.13;3.67;;;14.10;99.90;;;;;;5077749;28;20664;-77
2023/07/26 02:07:21;;;;;;;8.70;3.83;;;14.00;99.90;;;;;;5060805;28;20051;-77
2023/07/26 02:09:48;;;;;;;4.77;2.57;;;14.00;99.90;;;;;;5077689;28;20040;-77
2023/07/26 02:12:14;;;;;;;5.73;3.00;;;14.00;99.90;;;;;;5095622;28;20047;-77
2023/07/26 02:14:39;;;;;;;6.20;3.30;;;14.00;99.90;;;;;;5093962;28;20796;-77
2023/07/26 02:17:06;;;;;;;7.67;3.40;;;14.00;99.90;;;;;;5094388;28;20048;-76
2023/07/26 02:19:31;;;;;;;6.27;3.20;;;14.00;99.90;;;;;;5077313;28;20091;-76
2023/07/26 02:21:57;;;;;;;6.37;3.00;;;13.90;99.90;;;;;;5077186;28;20832;-76
2023/07/26 02:24:23;;;;;;;5.20;2.80;;;13.90;99.90;;;;;;5095048;28;20056;-77
2023/07/26 02:26:48;;;;;;;6.47;3.10;;;13.90;99.90;;;;;;5094288;28;20044;-77
2023/07/26 02:29:14;;;;;;;7.07;3.53;;;13.90;99.90;;;;;;5093959;28;20048;-76
2023/07/26 02:31:40;;;;;;;7.07;3.10;;;13.90;99.90;;;;;;5093639;28;20059;-76
2023/07/26 02:34:05;;;;;;;7.53;3.63;;;13.90;99.90;;;;;;5093856;28;20044;-76
2023/07/26 02:36:31;;;;;;;5.90;3.50;;;13.90;99.90;;;;;;5094766;28;20044;-77
2023/07/26 02:38:57;;;;;;;6.83;3.60;;;13.90;99.90;;;;;;5077222;28;20047;-76
2023/07/26 02:41:23;;;;;;;8.23;3.87;;;13.90;99.90;;;;;;5093447;28;20048;-76
2023/07/26 02:43:48;;;;;;;6.60;3.43;;;14.00;99.90;;;;;;5095075;28;20067;-76
2023/07/26 02:46:14;;;;;;;8.97;3.97;;;13.90;99.90;;;;;;5094859;28;20044;-78
2023/07/26 02:48:40;;;;;;;9.20;3.70;;;13.90;99.90;;;;;;5076669;28;20051;-80
2023/07/26 02:51:05;;;;;;;8.17;4.10;;;13.90;99.90;;;;;;5094775;28;20075;-79
2023/07/26 02:53:34;;;;;;;10.03;4.10;;;13.90;99.90;;;;;;5075657;28;20415;-79
2023/07/26 02:56:01;;;;;;;6.00;3.40;;;13.80;99.90;;;;;;5059872;28;20047;-78
2023/07/26 02:58:33;;;;;;;7.47;3.97;;;13.90;99.90;;;;;;5092722;28;20290;-78
2023/07/26 03:01:03;;;;;;;9.80;3.60;;;13.90;99.90;;;;;;5093114;28;20765;-78
2023/07/26 03:03:32;;;;;;;7.70;3.97;;;13.90;99.90;;;;;;5092778;28;20066;-78
2023/07/26 03:06:01;;;;;;;6.93;3.60;;;13.90;99.90;;;;;;5093243;28;20278;-78
2023/07/26 03:08:28;;;;;;;6.17;3.80;;;13.90;99.90;;;;;;5092900;28;20297;-78
2023/07/26 03:11:09;;;;;;;7.60;3.63;;;13.90;99.90;;;;;;5093138;28;20102;-78
2023/07/26 03:13:37;;;;;;;8.13;3.40;;;13.90;99.90;;;;;;5075876;28;20321;-78
2023/07/26 03:16:04;;;;;;;10.23;3.00;;;13.80;99.90;;;;;;5075650;28;20293;-78
2023/07/26 03:18:30;;;;;;;6.37;3.17;;;13.80;99.90;;;;;;5059158;28;20286;-78
2023/07/26 03:20:56;;;;;;;6.20;3.03;;;13.90;99.90;;;;;;5059310;28;20355;-78
2023/07/26 03:23:23;;;;;;;6.77;2.97;;;13.90;99.90;;;;;;5092852;28;20097;-78
2023/07/26 03:25:50;;;;;;;5.83;2.93;;;13.90;99.90;;;;;;5075456;28;20491;-78
2023/07/26 03:28:16;;;;;;;5.40;2.37;;;13.90;99.90;;;;;;5094057;28;20692;-78
2023/07/26 03:30:41;;;;;;;7.23;2.70;;;13.90;99.90;;;;;;5092683;28;20377;-79
2023/07/26 03:33:08;;;;;;;6.40;2.40;;;13.90;99.90;;;;;;5092839;28;20044;-79
2023/07/26 03:35:34;;;;;;;6.13;2.50;;;13.90;99.90;;;;;;5075645;28;20055;-79
2023/07/26 03:38:08;;;;;;;7.20;2.33;;;13.90;99.90;;;;;;5092868;28;20291;-79
2023/07/26 03:40:47;;;;;;;7.10;2.73;;;13.90;99.90;;;;;;5076806;28;20337;-78
2023/07/26 03:43:13;;;;;;;5.07;2.40;;;13.90;99.90;;;;;;5092400;28;20289;-78
2023/07/26 03:45:51;;;;;;;5.17;2.00;;;13.90;99.90;;;;;;5074920;28;20282;-79
2023/07/26 03:48:17;;;;;;;4.27;1.93;;;13.90;99.90;;;;;;5075531;28;20360;-77
2023/07/26 03:50:42;;;;;;;5.97;2.97;;;13.90;99.90;;;;;;5075042;28;20282;-79
2023/07/26 03:53:09;;;;;;;5.93;2.33;;;13.90;99.90;;;;;;5058897;28;20094;-79
2023/07/26 03:55:36;;;;;;;7.47;2.30;;;13.80;99.90;;;;;;5042262;28;20076;-79
2023/07/26 03:58:02;;;;;;;8.40;2.40;;;13.80;99.90;;;;;;5075638;28;20274;-78
2023/07/26 04:00:28;;;;;;;6.57;2.53;;;13.80;99.90;;;;;;5058862;28;20401;-77
2023/07/26 04:02:54;;;;;;;4.60;2.50;;;13.80;99.90;;;;;;5093078;28;20365;-78
2023/07/26 04:05:20;;;;;;;7.37;2.40;;;13.80;99.90;;;;;;5092406;28;20040;-78
2023/07/26 04:07:45;;;;;;;6.97;2.40;;;13.80;99.90;;;;;;5075229;28;20044;-78
2023/07/26 04:10:11;;;;;;;7.30;2.60;;;13.80;99.90;;;;;;5091876;28;20044;-78
2023/07/26 04:12:37;;;;;;;7.37;2.37;;;13.80;99.90;;;;;;5075223;28;20052;-78
2023/07/26 04:15:03;;;;;;;6.20;2.83;;;13.80;99.90;;;;;;5092274;28;20044;-78
2023/07/26 04:17:28;;;;;;;6.00;2.53;;;13.80;99.90;;;;;;5092375;28;20519;-77
2023/07/26 04:19:54;;;;;;;6.13;2.10;;;13.90;99.90;;;;;;5092905;28;20400;-78
2023/07/26 04:22:20;;;;;;;4.77;2.53;;;13.90;99.90;;;;;;5092005;28;20043;-78
2023/07/26 04:24:46;;;;;;;4.50;2.20;;;13.90;99.90;;;;;;5091726;28;20094;-78
2023/07/26 04:27:11;;;;;;;5.30;2.40;;;14.00;99.90;;;;;;5093163;28;20459;-78
2023/07/26 04:29:37;;;;;;;6.43;2.23;;;14.00;99.90;;;;;;5092811;28;20047;-78
2023/07/26 04:32:03;;;;;;;5.80;2.43;;;14.00;99.90;;;;;;5075229;28;20058;-77
2023/07/26 04:34:29;;;;;;;6.23;2.07;;;14.00;99.90;;;;;;5075201;28;20294;-77
2023/07/26 04:36:55;;;;;;;5.33;2.23;;;14.00;99.90;;;;;;5092727;28;20286;-77
2023/07/26 04:39:20;;;;;;;5.07;2.23;;;14.00;99.90;;;;;;5091916;28;20055;-77
2023/07/26 04:41:46;;;;;;;9.13;2.43;;;14.00;99.90;;;;;;5091392;28;20054;-77
2023/07/26 04:44:12;;;;;;;4.93;2.33;;;14.00;99.90;;;;;;5092964;28;20043;-77
2023/07/26 04:46:38;;;;;;;6.77;2.00;;;14.10;99.90;;;;;;5074851;28;20145;-77
2023/07/26 04:49:03;;;;;;;3.97;2.10;;;14.10;99.90;;;;;;5092965;28;20089;-77
2023/07/26 04:51:29;;;;;;;5.13;2.07;;;14.10;99.90;;;;;;5074849;28;20044;-76
2023/07/26 04:53:55;;;;;;;5.70;1.83;;;14.10;99.90;;;;;;5091439;28;20056;-77
2023/07/26 04:56:25;;;;;;;6.07;2.00;;;14.10;99.90;;;;;;5091853;28;20290;-77
2023/07/26 04:58:51;;;;;;;4.83;2.40;;;14.10;99.90;;;;;;5074720;28;20181;-77
2023/07/26 05:01:17;;;;;;;4.30;1.83;;;14.20;99.90;;;;;;5092635;28;20286;-77
2023/07/26 05:03:43;;;;;;;6.37;2.50;;;14.10;99.90;;;;;;5092478;28;20266;-78
2023/07/26 05:06:10;;;;;;;6.13;2.17;;;14.10;99.90;;;;;;5092849;28;20051;-77
2023/07/26 05:08:36;;;;;;;4.90;1.70;;;14.10;99.90;;;;;;5092773;28;20044;-77
2023/07/26 05:11:02;;;;;;;5.40;1.90;;;14.10;99.90;;;;;;5092843;28;20376;-77
2023/07/26 05:13:28;;;;;;;5.27;1.93;;;14.10;99.90;;;;;;5091452;28;20052;-77
2023/07/26 05:15:53;;;;;;;4.80;1.97;;;14.10;99.90;;;;;;5092339;28;20047;-77
2023/07/26 05:18:19;;;;;;;3.63;1.80;;;14.10;99.90;;;;;;5092822;28;20040;-77
2023/07/26 05:20:47;;;;;;;4.67;1.80;;;14.10;99.90;;;;;;5074448;28;20495;-77
2023/07/26 05:23:13;;;;;;;4.70;2.17;;;14.10;99.90;;;;;;5095728;28;20050;-77
2023/07/26 05:25:41;;;;;;;4.33;1.73;;;14.10;99.90;;;;;;5095216;28;20376;-77
2023/07/26 05:28:08;;;;;;;4.67;1.70;;;14.20;99.90;;;;;;5096300;28;20048;-77
2023/07/26 05:30:41;;;;;;;3.67;1.60;;;14.20;99.90;;;;;;5095417;28;20297;-77
2023/07/26 05:33:07;;;;;;;6.40;1.90;;;14.20;99.90;;;;;;5096301;28;20274;-77
2023/07/26 05:35:34;;;;;;;5.70;1.93;;;14.30;99.90;;;;;;5095193;28;20305;-77
2023/07/26 05:37:59;;;;;;;4.10;1.90;;;14.20;99.90;;;;;;5095630;28;21150;-77
2023/07/26 05:40:25;;;;;;;3.87;1.57;;;14.30;99.90;;;;;;5096086;28;20328;-77
2023/07/26 05:42:51;;;;;;;4.13;1.90;;;14.30;99.90;;;;;;5095927;28;20041;-77
2023/07/26 05:45:17;;;;;;;3.30;1.60;;;14.30;99.90;;;;;;5096400;28;20101;-77
2023/07/26 05:47:43;;;;;;;4.37;1.80;;;14.30;99.90;;;;;;5095690;28;20369;-77
2023/07/26 05:50:12;;;;;;;4.97;2.03;;;14.30;99.90;;;;;;5095973;28;20048;-77
2023/07/26 05:52:38;;;;;;;5.20;2.00;;;14.30;99.90;;;;;;5095909;28;20282;-77
2023/07/26 05:55:05;;;;;;;3.70;1.80;;;14.20;99.90;;;;;;5094666;28;20290;-77
2023/07/26 05:57:31;;;;;;;5.40;2.20;;;14.20;99.90;;;;;;5095005;28;20774;-77
2023/07/26 05:59:56;;;;;;;3.60;1.60;;;14.20;99.90;;;;;;5077284;28;20278;-78
2023/07/26 06:02:22;;;;;;;5.80;2.10;;;14.30;99.90;;;;;;5094568;28;20550;-79
2023/07/26 06:04:48;;;;;;;8.07;2.40;;;14.30;99.90;;;;;;5094443;28;20044;-80
2023/07/26 06:07:16;;;;;;;5.53;2.30;;;14.30;99.90;;;;;;5094417;28;20110;-80
2023/07/26 06:09:47;;;;;;;6.63;2.10;;;14.30;99.90;;;;;;5094288;28;20661;-81
2023/07/26 06:12:15;;;;;;;6.47;2.50;;;14.30;99.90;;;;;;5094255;28;20286;-80
2023/07/26 06:14:41;;;;;;;5.97;2.43;;;14.20;99.90;;;;;;5077899;28;20653;-80
2023/07/26 06:17:06;;;;;;;5.70;2.40;;;14.20;99.90;;;;;;5094140;28;20277;-81
2023/07/26 06:19:32;;;;;;;6.60;2.00;;;14.20;99.90;;;;;;5095411;28;20056;-80
2023/07/26 06:21:59;;;;;;;6.10;2.30;;;14.20;99.90;;;;;;5093835;28;20096;-79
2023/07/26 06:24:25;;;;;;;4.93;2.13;;;14.10;99.90;;;;;;5094122;28;20054;-81
2023/07/26 06:26:52;;;;;;;10.37;3.60;;;14.10;99.90;;;;;;5093767;28;20282;-80
2023/07/26 06:29:18;;;;;;;6.60;2.70;;;14.10;99.90;;;;;;5095152;28;20282;-82
2023/07/26 06:31:44;;;;;;;7.23;2.57;;;14.10;99.90;;;;;;5095153;28;20288;-79
2023/07/26 06:34:09;;;;;;;7.93;2.80;;;14.10;99.90;;;;;;5094532;28;20297;-76
2023/07/26 06:36:35;;;;;;;6.70;2.93;;;14.00;99.90;;;;;;5095124;28;20491;-76
2023/07/26 06:39:01;;;;;;;6.70;2.70;;;13.90;99.90;;;;;;5095070;28;20059;-76
2023/07/26 06:41:27;;;;;;;7.17;2.20;;;14.00;99.90;;;;;;5094866;28;20036;-76
2023/07/26 06:43:53;;;;;;;6.90;3.17;;;13.90;99.90;;;;;;5094637;28;20288;-77
2023/07/26 06:46:18;;;;;;;6.43;2.70;;;13.90;99.90;;;;;;5093897;28;20383;-78
2023/07/26 06:48:44;;;;;;;5.67;2.50;;;13.90;99.90;;;;;;5094792;28;20044;-79
2023/07/26 06:51:10;;;;;;;7.83;2.63;;;13.80;99.90;;;;;;5094469;28;20090;-79
2023/07/26 06:53:35;;;;;;;6.17;2.50;;;13.90;99.90;;;;;;5093362;28;20135;-79
2023/07/26 06:56:01;;;;;;;7.70;2.50;;;13.90;99.90;;;;;;5094327;28;20052;-79
2023/07/26 06:58:27;;;;;;;7.00;2.73;;;13.90;99.90;;;;;;5094586;28;20047;-79
2023/07/26 07:00:54;;;;;;;8.97;2.70;;;13.90;99.90;;;;;;5094198;28;20032;-77
2023/07/26 07:03:20;;;;;;;10.13;3.03;;;14.00;99.90;;;;;;5094712;28;20048;-77
2023/07/26 07:05:46;;;;;;;7.17;2.40;;;14.00;99.90;;;;;;5094446;28;20818;-76
2023/07/26 07:08:12;;;;;;;4.97;2.40;;;14.10;99.90;;;;;;5094130;28;20043;-76
2023/07/26 07:10:37;;;;;;;5.53;2.50;;;14.20;99.90;;;;;;5094272;28;20440;-76
2023/07/26 07:13:04;;;;;;;5.80;2.53;;;14.20;99.90;;;;;;5093016;28;20052;-76
2023/07/26 07:15:30;;;;;;;7.30;3.53;;;14.20;99.90;;;;;;5092974;28;20110;-76
2023/07/26 07:17:55;;;;;;;6.77;3.20;;;14.30;99.90;;;;;;5092321;28;20361;-82
2023/07/26 07:20:21;;;;;;;6.90;3.40;;;14.30;99.90;;;;;;5075721;28;20046;-82
2023/07/26 07:22:51;;;;;;;6.87;3.60;;;14.30;99.90;;;;;;5092446;28;20075;-75
2023/07/26 07:25:17;;;;;;;8.20;3.60;;;14.30;99.90;;;;;;5075400;28;20503;-77
2023/07/26 07:27:42;;;;;;;6.40;3.70;;;14.30;99.90;;;;;;5092546;28;20293;-77
2023/07/26 07:30:10;;;;;;;6.30;3.57;;;14.30;99.90;;;;;;5075844;28;20078;-77
2023/07/26 07:32:37;;;;;;;6.13;3.40;;;14.30;99.90;;;;;;5094119;28;20044;-76
2023/07/26 07:35:05;;;;;;;7.70;3.63;;;14.40;99.90;;;;;;5093573;28;20290;-69
2023/07/26 07:37:30;;;;;;;8.10;3.80;;;14.40;99.90;;;;;;5093511;28;20788;-75
2023/07/26 07:39:56;;;;;;;5.40;3.40;;;14.40;99.90;;;;;;5075633;28;20286;-75
2023/07/26 07:42:22;;;;;;;6.83;4.00;;;14.60;99.90;;;;;;5094071;28;20040;-78
2023/07/26 07:44:47;;;;;;;9.40;4.20;;;15.10;99.90;;;;;;5093028;28;20096;-78
2023/07/26 07:47:13;;;;;;;4.53;2.60;;;16.40;99.90;;;;;;5093346;28;20093;-77
2023/07/26 07:49:39;;;;;;;4.10;2.40;;;17.70;99.90;;;;;;5093351;28;20100;-76
2023/07/26 07:52:05;;;;;;;5.40;2.30;;;17.90;99.90;;;;;;5093266;28;20056;-77
2023/07/26 07:54:31;;;;;;;5.57;2.70;;;17.60;99.90;;;;;;5092637;28;20092;-78
2023/07/26 07:56:56;;;;;;;4.53;2.30;;;17.20;99.90;;;;;;5093356;28;20561;-77
2023/07/26 07:59:22;;;;;;;6.47;2.50;;;16.90;99.90;;;;;;5093494;28;20499;-78
2023/07/26 08:01:48;;;;;;;5.77;2.43;;;16.80;99.90;;;;;;5093576;28;20083;-78
2023/07/26 08:04:13;;;;;;;5.40;2.37;;;16.90;99.90;;;;;;5092189;28;20127;-78
2023/07/26 08:06:39;;;;;;;5.60;2.80;;;17.00;99.90;;;;;;5093482;28;20494;-76
2023/07/26 08:09:05;;;;;;;3.87;1.93;;;17.00;99.90;;;;;;5091803;28;20048;-76
2023/07/26 08:11:30;;;;;;;4.37;2.13;;;16.90;99.90;;;;;;5092362;28;20043;-78
2023/07/26 08:13:56;;;;;;;5.43;2.60;;;16.70;99.90;;;;;;5092477;28;20066;-80
2023/07/26 08:16:22;;;;;;;4.17;1.97;;;16.50;99.90;;;;;;5093009;28;20048;-78
2023/07/26 08:18:47;;;;;;;5.00;2.20;;;16.30;99.90;;;;;;5093415;28;20048;-77
2023/07/26 08:21:13;;;;;;;3.57;2.03;;;16.10;99.90;;;;;;5092824;28;20077;-77
2023/07/26 08:23:42;;;;;;;5.27;2.50;;;16.00;99.90;;;;;;5092023;28;20122;-77
2023/07/26 08:26:08;;;;;;;5.83;2.17;;;16.00;99.90;;;;;;5092959;28;20498;-77
2023/07/26 08:28:34;;;;;;;5.50;2.47;;;16.10;99.90;;;;;;5093176;28;20181;-76
2023/07/26 08:31:00;;;;;;;4.07;2.10;;;16.40;99.90;;;;;;5092782;28;20044;-76
2023/07/26 08:33:25;;;;;;;5.03;2.37;;;16.50;99.90;;;;;;5092071;28;20130;-76
2023/07/26 08:35:51;;;;;;;5.10;2.47;;;16.60;99.90;;;;;;5093088;28;20136;-78
2023/07/26 08:38:19;;;;;;;5.13;2.50;;;16.50;99.90;;;;;;5091732;28;20117;-76
2023/07/26 08:40:47;;;;;;;4.63;2.43;;;16.70;99.90;;;;;;5092060;28;20048;-76
2023/07/26 08:43:15;;;;;;;5.03;2.40;;;17.20;99.90;;;;;;5092657;28;20454;-75
2023/07/26 08:45:44;;;;;;;5.00;2.47;;;17.60;99.90;;;;;;5091988;28;20123;-79
2023/07/26 08:48:10;;;;;;;4.40;2.53;;;17.70;99.90;;;;;;5092629;28;20055;-74
2023/07/26 08:50:39;;;;;;;4.87;2.60;;;17.80;99.90;;;;;;5093130;28;20473;-75
2023/07/26 08:53:06;;;;;;;6.03;3.10;;;18.00;99.90;;;;;;5092637;28;20051;-76
2023/07/26 08:55:35;;;;;;;6.43;3.07;;;18.10;99.90;;;;;;5092599;28;20178;-75
2023/07/26 08:58:02;;;;;;;5.30;3.07;;;18.00;99.90;;;;;;5097012;28;20052;-74
2023/07/26 09:00:29;;;;;;;4.80;2.47;;;17.90;99.90;;;;;;5095376;28;20086;-74
2023/07/26 09:02:57;;;;;;;6.80;2.70;;;17.60;99.90;;;;;;5096834;28;20044;-75
2023/07/26 09:05:23;;;;;;;5.17;2.57;;;17.30;99.90;;;;;;5096512;28;20052;-74
2023/07/26 09:07:51;;;;;;;7.37;2.80;;;16.90;99.90;;;;;;5096436;28;20181;-73
2023/07/26 09:10:30;;;;;;;6.30;2.87;;;16.70;99.90;;;;;;5093517;28;20542;-73
2023/07/26 09:13:07;;;;;;;5.83;3.10;;;16.60;99.90;;;;;;5093723;28;20059;-73
2023/07/26 09:15:40;;;;;;;8.20;3.40;;;16.70;99.90;;;;;;5096275;28;20044;-79
2023/07/26 09:18:06;;;;;;;5.30;3.63;;;16.90;99.90;;;;;;5094934;28;20123;-73
2023/07/26 09:20:33;;;;;;;5.83;2.60;;;17.20;99.90;;;;;;5096155;28;20044;-74
2023/07/26 09:23:05;;;;;;;5.00;2.70;;;17.40;99.90;;;;;;5096234;28;20086;-73
2023/07/26 09:25:45;;;;;;;4.90;2.50;;;17.60;99.90;;;;;;5095840;28;20407;-74
2023/07/26 09:28:13;;;;;;;5.73;2.67;;;17.70;99.90;;;;;;5096004;28;20127;-74
2023/07/26 09:30:45;;;;;;;4.13;2.20;;;17.80;99.90;;;;;;5095591;28;20040;-68
2023/07/26 09:33:12;;;;;;;4.90;2.40;;;17.70;99.90;;;;;;5096050;28;20083;-72
2023/07/26 09:35:56;;;;;;;5.53;2.67;;;17.60;99.90;;;;;;5096169;28;20089;-72
2023/07/26 09:38:24;;;;;;;5.77;2.50;;;17.50;99.90;;;;;;5096084;28;20043;-71
2023/07/26 09:40:50;;;;;;;3.87;2.37;;;17.60;99.90;;;;;;5096064;28;20051;-72
2023/07/26 09:43:34;;;;;;;4.10;2.17;;;17.60;99.90;;;;;;5095853;28;20044;-72
2023/07/26 09:46:04;;;;;;;3.53;2.10;;;17.60;99.90;;;;;;5096089;28;20494;-73
2023/07/26 09:48:31;;;;;;;4.27;2.40;;;17.60;99.90;;;;;;5094583;28;20093;-72
2023/07/26 09:51:05;;;;;;;4.30;2.20;;;17.70;99.90;;;;;;5095915;28;20433;-74
2023/07/26 09:53:33;;;;;;;3.70;1.85;;;17.80;99.90;;;;;;5095738;28;20066;-69
2023/07/26 09:55:59;;;;;;;5.10;2.40;;;17.80;99.90;;;;;;5095899;28;20135;-73
2023/07/26 09:58:30;;;;;;;4.93;2.27;;;17.80;99.90;;;;;;5095513;28;20079;-70
2023/07/26 10:01:01;;;;;;;4.97;2.20;;;17.90;99.90;;;;;;5095914;28;20039;-69
2023/07/26 10:03:29;;;;;;;3.90;2.13;;;17.90;99.90;;;;;;5095456;28;20094;-69
2023/07/26 10:05:56;;;;;;;3.93;2.20;;;18.00;99.90;;;;;;5088816;28;20043;-75
2023/07/26 10:08:23;;;;;;;5.30;2.47;;;18.10;99.90;;;;;;5089330;28;20049;-72
2023/07/26 10:10:52;;;;;;;3.97;2.27;;;18.00;99.90;;;;;;5084318;28;20049;-69
2023/07/26 10:13:19;;;;;;;5.50;2.50;;;17.90;99.90;;;;;;5085074;28;20048;-79
2023/07/26 10:15:47;;;;;;;4.67;2.43;;;17.80;99.90;;;;;;5067745;28;20127;-72
2023/07/26 10:18:19;;;;;;;4.43;2.27;;;17.60;99.90;;;;;;5088337;28;20484;-71
2023/07/26 10:20:47;;;;;;;5.57;2.60;;;17.50;99.90;;;;;;5088754;28;20050;-71
2023/07/26 10:23:14;;;;;;;4.30;2.50;;;17.40;99.90;;;;;;5087231;28;20079;-77
2023/07/26 10:25:40;;;;;;;5.23;2.40;;;17.30;99.90;;;;;;5090318;28;20049;-73
2023/07/26 10:28:07;;;;;;;4.87;2.43;;;17.30;99.90;;;;;;5091464;28;20122;-69
2023/07/26 10:30:33;;;;;;;4.80;2.60;;;17.40;99.90;;;;;;5087440;28;20123;-70
2023/07/26 10:33:00;;;;;;;4.87;2.40;;;17.40;99.90;;;;;;5073735;28;20047;-74
2023/07/26 10:35:32;;;;;;;5.70;2.77;;;17.50;99.90;;;;;;5094134;28;20591;-70
2023/07/26 10:38:02;;;;;;;5.57;2.60;;;17.50;99.90;;;;;;5095263;28;20044;-69
2023/07/26 10:40:35;;;;;;;5.73;2.73;;;17.50;99.90;;;;;;5094603;28;20044;-69
2023/07/26 10:43:19;;;;;;;3.67;1.90;;;17.50;99.90;;;;;;5084102;28;20040;-70
2023/07/26 10:45:45;;;;;;;3.67;1.80;;;17.60;99.90;;;;;;5088665;28;20072;-74
2023/07/26 10:48:36;;;;;;;3.67;1.80;;;17.70;99.90;;;;;;5089417;28;20040;-79
2023/07/26 10:51:33;;;;;;;5.37;2.00;;;17.80;99.90;;;;;;5087733;28;20044;-79
2023/07/26 10:54:00;;;;;;;6.27;2.40;;;17.90;99.90;;;;;;5094943;28;20064;-80
2023/07/26 10:56:30;;;;;;;6.43;2.67;;;18.10;99.90;;;;;;5093450;28;20040;-78
2023/07/26 10:59:02;;;;;;;4.47;1.93;;;18.20;99.90;;;;;;5094376;28;20515;-80
2023/07/26 11:01:40;;;;;;;4.13;2.23;;;18.20;99.90;;;;;;5094330;28;20048;-78
2023/07/26 11:04:12;;;;;;;6.10;2.00;;;18.20;99.90;;;;;;5094503;28;20044;-79
2023/07/26 11:07:07;;;;;;;4.63;2.10;;;18.20;99.90;;;;;;5094221;28;20173;-81
2023/07/26 11:09:33;;;;;;;4.35;2.20;;;18.30;99.90;;;;;;5083706;28;20134;-80
2023/07/26 11:12:09;;;;;;;5.53;2.40;;;18.30;99.90;;;;;;5094014;28;20044;-80
2023/07/26 11:14:36;;;;;;;4.10;2.47;;;18.30;99.90;;;;;;5077883;28;20044;-82
2023/07/26 11:17:16;;;;;;;5.70;2.57;;;18.40;99.90;;;;;;5094292;28;20513;-81
2023/07/26 11:19:49;;;;;;;3.80;2.03;;;18.60;99.90;;;;;;5083265;28;20055;-79
2023/07/26 11:22:15;;;;;;;5.30;2.27;;;18.80;99.90;;;;;;5087021;28;20067;-80
2023/07/26 11:24:41;;;;;;;7.07;2.37;;;18.90;99.90;;;;;;5082494;28;20052;-77
2023/07/26 11:27:07;;;;;;;5.27;2.47;;;19.10;99.90;;;;;;5073802;28;20071;-80
2023/07/26 11:29:33;;;;;;;6.33;2.70;;;19.20;99.90;;;;;;5073614;28;20071;-80
2023/07/26 11:32:00;;;;;;;5.63;2.57;;;19.20;99.90;;;;;;5073750;28;20036;-77
2023/07/26 11:34:25;;;;;;;7.77;2.60;;;19.00;99.90;;;;;;5075777;28;20052;-81
2023/07/26 11:36:51;;;;;;;5.63;2.20;;;18.90;99.90;;;;;;5093536;28;20391;-78
2023/07/26 11:39:26;;;;;;;7.73;2.80;;;18.80;99.90;;;;;;5093963;28;20101;-79
2023/07/26 11:41:52;;;;;;;;;;;18.70;99.90;;;;;;5093884;28;20044;-78
2023/07/26 11:44:22;;;;;;;5.57;2.13;;;18.60;99.90;;;;;;5093005;28;19927;-77
2023/07/26 11:46:48;;;;;;;4.60;2.10;;;18.50;99.90;;;;;;5083113;28;20048;-71
2023/07/26 11:49:22;;;;;;;4.90;2.00;;;18.60;99.90;;;;;;5084874;28;20097;-81
2023/07/26 11:51:49;;;;;;;4.90;2.23;;;18.60;99.90;;;;;;5091776;28;20047;-76
2023/07/26 11:54:16;;;;;;;5.50;2.17;;;18.60;99.90;;;;;;5091509;28;20130;-78
2023/07/26 11:56:43;;;;;;;4.67;1.87;;;18.70;99.90;;;;;;5093028;28;20048;-72
2023/07/26 11:59:09;;;;;;;4.30;2.10;;;18.70;99.90;;;;;;5092447;28;20372;-71
2023/07/26 12:01:37;;;;;;;4.90;2.03;;;18.80;99.90;;;;;;5093136;28;20051;-72
2023/07/26 12:04:14;;;;;;;4.43;2.03;;;18.90;99.90;;;;;;5093448;28;20083;-70
2023/07/26 12:06:41;;;;;;;5.33;2.07;;;19.00;99.90;;;;;;5093283;28;20044;-70
2023/07/26 12:09:11;;;;;;;5.27;2.50;;;19.00;99.90;;;;;;5093463;28;20052;-70
2023/07/26 12:11:50;;;;;;;6.30;2.30;;;19.00;99.90;;;;;;5093096;28;20036;-71
2023/07/26 12:14:17;;;;;;;6.50;2.27;;;19.10;99.90;;;;;;5093290;28;20044;-70
2023/07/26 12:16:53;;;;;;;2.83;1.63;;;19.20;99.90;;;;;;5093108;28;20044;-70
2023/07/26 12:19:23;;;;;;;6.40;1.93;;;19.10;99.90;;;;;;5093533;28;20048;-70
2023/07/26 12:21:49;;;;;;;4.87;2.13;;;19.10;99.90;;;;;;5092802;28;20048;-70
2023/07/26 12:24:15;;;;;;;5.50;2.00;;;19.10;99.90;;;;;;5093103;28;20074;-70
2023/07/26 12:26:47;;;;;;;6.07;2.10;;;19.10;99.90;;;;;;5091901;28;20052;-75
2023/07/26 12:29:14;;;;;;;4.00;1.87;;;19.00;99.90;;;;;;5093267;28;20048;-75
2023/07/26 12:31:40;;;;;;;6.00;2.43;;;19.10;99.90;;;;;;5091429;28;20051;-74
2023/07/26 12:34:07;;;;;;;5.70;2.00;;;19.10;99.90;;;;;;5092194;28;20052;-73
2023/07/26 12:36:44;;;;;;;5.10;2.30;;;19.10;99.90;;;;;;5074732;28;20104;-73
2023/07/26 12:39:11;;;;;;;7.57;2.27;;;19.20;99.90;;;;;;5093068;28;20059;-71
2023/07/26 12:41:41;;;;;;;5.37;1.80;;;19.30;99.90;;;;;;5092698;28;20044;-73
2023/07/26 12:44:07;;;;;;;4.47;2.07;;;19.30;99.90;;;;;;5093054;28;20044;-75
2023/07/26 12:46:33;;;;;;;6.03;2.60;;;19.40;99.90;;;;;;5092700;28;20510;-75
2023/07/26 12:48:59;;;;;;;4.57;2.10;;;19.40;99.90;;;;;;5092938;28;20040;-75
2023/07/26 12:51:26;;;;;;;5.20;2.30;;;19.40;99.90;;;;;;5093053;28;20496;-75